ヨハネスブルグ の空港の天気 - METARとTAF

ヨハネスブルグ/O.R.タンボ国際空港 ( FAOR / JNB ) - 南アフリカ ヨハネスブルグ
飛行場実況気象(Metar)
観測時間09/25 03:00 SAST (09/25 01:00 UTC)
風向・風速北北東 6m/s
視程10km以上
天気現象
なし
気温13℃
湿度77%
気圧1024hPa
METARFAOR 250100Z 02011KT CAVOK 13/09 Q1024 NOSIG
過去の天気等 Google飛行場航空写真 Wunderground天気予報

過去48時間のMETAR

飛行場予報(TAF)
発表時間: 9/25 00:00 SAST (9/24 22:00 UTC)
予報対象時間: 25日2時 SAST ~ 26日8時 SAST
風向・風速東北東 6m/s
視程10km以上
なし
25日8時 SAST ~ 25日10時 SAST に徐々に
風向・風速北 8m/s
TAF FAOR 242200Z 2500/2606 06012KT CAVOK
BECMG 2506/2508 36015KT TX27/2513Z TN13/2503Z